createdAt,value
2023-04-20T00:00:17.968Z,31.87
2023-04-20T00:01:18.045Z,28.11
2023-04-20T00:02:18.165Z,28.89
2023-04-20T00:03:18.249Z,28.69
2023-04-20T00:04:18.316Z,26.59
2023-04-20T00:05:18.306Z,28.74
2023-04-20T00:06:18.230Z,26.95
2023-04-20T00:07:18.302Z,30.11
2023-04-20T00:08:18.393Z,28.64
2023-04-20T00:09:18.661Z,28.38
2023-04-20T00:10:18.516Z,26.31
2023-04-20T00:11:18.566Z,26.04
2023-04-20T00:12:18.643Z,28.48
2023-04-20T00:13:18.627Z,27.62
2023-04-20T00:14:18.678Z,29.28
2023-04-20T00:15:18.778Z,29.58
2023-04-20T00:16:18.834Z,29.06
2023-04-20T00:17:18.868Z,29.63
2023-04-20T00:18:18.808Z,30.47
2023-04-20T00:19:19.005Z,30.26
2023-04-20T00:20:18.935Z,28.35
2023-04-20T00:21:18.951Z,26.43
2023-04-20T00:22:18.978Z,26.23
2023-04-20T00:23:19.049Z,28.01
2023-04-20T00:24:19.015Z,27.70
2023-04-20T00:25:19.044Z,29.24
2023-04-20T00:26:19.110Z,29.34
2023-04-20T00:27:19.907Z,29.51
2023-04-20T00:28:19.179Z,31.93
2023-04-20T00:29:19.261Z,29.10
2023-04-20T00:30:19.204Z,26.81
2023-04-20T00:31:19.268Z,28.94
2023-04-20T00:32:19.228Z,25.00
2023-04-20T00:33:19.259Z,26.56
2023-04-20T00:34:19.286Z,26.34
2023-04-20T00:35:19.284Z,28.84
2023-04-20T00:36:19.269Z,27.00
2023-04-20T00:37:19.285Z,25.91
2023-04-20T00:38:19.309Z,26.21
2023-04-20T00:39:19.411Z,25.54
2023-04-20T00:40:19.352Z,28.86
2023-04-20T00:41:19.365Z,30.60
2023-04-20T00:42:19.342Z,25.57
2023-04-20T00:43:19.393Z,28.74
2023-04-20T00:44:19.375Z,29.76
2023-04-20T00:45:19.410Z,27.07
2023-04-20T00:46:19.469Z,28.64
2023-04-20T00:47:19.506Z,26.83
2023-04-20T00:48:19.500Z,29.87
2023-04-20T00:49:19.685Z,25.23
2023-04-20T00:50:19.452Z,30.38
2023-04-20T00:51:19.436Z,30.27
2023-04-20T00:52:19.459Z,28.48
2023-04-20T00:53:19.464Z,30.46
2023-04-20T00:54:19.474Z,28.64
2023-04-20T00:55:19.457Z,30.89
2023-04-20T00:56:19.547Z,27.24
2023-04-20T00:57:19.484Z,31.70
2023-04-20T00:58:19.475Z,28.74
2023-04-20T00:59:19.533Z,29.79
2023-04-20T01:00:19.478Z,26.54
2023-04-20T01:01:19.478Z,26.90
2023-04-20T01:02:19.561Z,30.39
2023-04-20T01:03:19.695Z,30.40
2023-04-20T01:04:19.592Z,29.43
2023-04-20T01:05:19.490Z,26.63
2023-04-20T01:06:19.540Z,27.46
2023-04-20T01:07:19.579Z,29.15
2023-04-20T01:08:19.524Z,30.26
2023-04-20T01:09:19.760Z,29.51
2023-04-20T01:10:19.557Z,25.00
2023-04-20T01:11:19.588Z,29.61
2023-04-20T01:12:19.580Z,29.86
2023-04-20T01:13:19.567Z,29.23
2023-04-20T01:14:19.591Z,29.43
2023-04-20T01:15:19.602Z,26.47
2023-04-20T01:16:19.690Z,28.65
2023-04-20T01:17:19.654Z,28.69
2023-04-20T01:18:19.617Z,26.65
2023-04-20T01:19:19.781Z,25.00
2023-04-20T01:20:19.626Z,27.33
2023-04-20T01:21:19.640Z,26.77
2023-04-20T01:22:19.650Z,28.17
2023-04-20T01:23:19.614Z,27.52
2023-04-20T01:24:19.636Z,25.52
2023-04-20T01:25:19.619Z,27.74
2023-04-20T01:26:19.649Z,27.60
2023-04-20T01:27:19.644Z,26.10
2023-04-20T01:28:20.221Z,26.51
2023-04-20T01:29:19.723Z,26.82
2023-04-20T01:30:19.629Z,26.21
2023-04-20T01:31:19.628Z,25.09
2023-04-20T01:32:19.630Z,27.70
2023-04-20T01:33:19.597Z,28.46
2023-04-20T01:34:19.602Z,29.54
2023-04-20T01:35:19.593Z,24.80
2023-04-20T01:36:19.622Z,29.03
2023-04-20T01:37:19.600Z,28.77
2023-04-20T01:38:19.633Z,26.09
2023-04-20T01:39:20.012Z,25.96
2023-04-20T01:40:19.632Z,27.20
2023-04-20T01:41:19.652Z,33.17
2023-04-20T01:42:19.586Z,32.03
2023-04-20T01:43:19.572Z,31.43
2023-04-20T01:44:19.626Z,32.78
2023-04-20T01:45:19.588Z,29.14
2023-04-20T01:46:19.646Z,32.56
2023-04-20T01:47:19.622Z,30.28
2023-04-20T01:48:19.617Z,29.08
2023-04-20T01:49:19.821Z,29.83
2023-04-20T01:50:19.667Z,32.22
2023-04-20T01:51:19.630Z,28.95
2023-04-20T01:52:19.682Z,27.14
2023-04-20T01:53:19.628Z,29.32
2023-04-20T01:54:19.648Z,29.20
2023-04-20T01:55:20.227Z,31.48
2023-04-20T01:56:19.627Z,31.26
2023-04-20T01:57:19.649Z,28.74
2023-04-20T01:58:19.668Z,30.21
2023-04-20T01:59:19.800Z,29.87
2023-04-20T02:00:19.630Z,29.98
2023-04-20T02:01:19.685Z,27.05
2023-04-20T02:02:19.721Z,25.25
2023-04-20T02:03:19.803Z,27.90
2023-04-20T02:04:19.705Z,25.58
2023-04-20T02:05:19.652Z,27.36
2023-04-20T02:06:19.654Z,29.47
2023-04-20T02:07:19.736Z,31.55
2023-04-20T02:08:19.651Z,31.41
2023-04-20T02:09:19.751Z,31.34
2023-04-20T02:10:19.694Z,31.13
2023-04-20T02:11:19.644Z,29.86
2023-04-20T02:12:19.644Z,28.94
2023-04-20T02:13:19.658Z,29.13
2023-04-20T02:14:19.670Z,30.17
2023-04-20T02:15:19.666Z,29.51
2023-04-20T02:16:19.669Z,28.64
2023-04-20T02:17:19.818Z,27.65
2023-04-20T02:18:19.688Z,28.52
2023-04-20T02:19:19.779Z,29.71
2023-04-20T02:20:19.696Z,29.11
2023-04-20T02:21:19.696Z,30.28
2023-04-20T02:22:19.721Z,29.74
2023-04-20T02:23:19.703Z,30.66
2023-04-20T02:24:19.690Z,30.41
2023-04-20T02:25:19.719Z,31.94
2023-04-20T02:26:19.759Z,28.93
2023-04-20T02:27:19.747Z,27.87
2023-04-20T02:28:19.750Z,26.85
2023-04-20T02:29:20.551Z,25.97
2023-04-20T02:30:19.756Z,27.98
2023-04-20T02:31:19.791Z,28.04
2023-04-20T02:32:19.802Z,28.28
2023-04-20T02:33:19.750Z,30.62
2023-04-20T02:34:19.795Z,28.41
2023-04-20T02:35:19.789Z,27.39
2023-04-20T02:36:19.765Z,28.40
2023-04-20T02:37:19.779Z,30.34
2023-04-20T02:38:19.775Z,28.32
2023-04-20T02:39:20.050Z,29.13
2023-04-20T02:40:19.794Z,30.69
2023-04-20T02:41:19.813Z,30.25
2023-04-20T02:42:19.777Z,27.39
2023-04-20T02:43:19.837Z,30.44
2023-04-20T02:44:19.849Z,27.35
2023-04-20T02:45:19.860Z,29.37
2023-04-20T02:46:19.902Z,31.37
2023-04-20T02:47:19.956Z,30.70
2023-04-20T02:48:19.871Z,26.83
2023-04-20T02:49:19.884Z,27.16
2023-04-20T02:50:19.904Z,25.68
2023-04-20T02:51:19.915Z,25.00
2023-04-20T02:52:19.906Z,28.81
2023-04-20T02:53:19.915Z,30.72
2023-04-20T02:54:19.881Z,32.88
2023-04-20T02:55:19.886Z,32.76
2023-04-20T02:56:19.943Z,31.29
2023-04-20T02:57:19.936Z,27.26
2023-04-20T02:58:19.898Z,26.75
2023-04-20T02:59:19.943Z,29.50
2023-04-20T03:00:19.926Z,28.94
2023-04-20T03:01:19.970Z,30.90
2023-04-20T03:02:19.981Z,32.24
2023-04-20T03:03:20.026Z,30.55
2023-04-20T03:04:20.005Z,30.33
2023-04-20T03:05:19.943Z,31.49
2023-04-20T03:06:19.976Z,31.48
2023-04-20T03:07:19.979Z,31.07
2023-04-20T03:08:19.966Z,31.96
2023-04-20T03:09:20.029Z,34.97
2023-04-20T03:10:19.994Z,35.32
2023-04-20T03:11:19.973Z,33.02
2023-04-20T03:12:20.014Z,34.23
2023-04-20T03:13:19.985Z,35.45
2023-04-20T03:14:20.047Z,34.13
2023-04-20T03:15:20.024Z,33.40
2023-04-20T03:16:20.098Z,33.36
2023-04-20T03:17:20.118Z,38.65
2023-04-20T03:18:20.040Z,38.18
2023-04-20T03:19:20.083Z,35.58
2023-04-20T03:20:20.039Z,36.61
2023-04-20T03:21:20.093Z,37.45
2023-04-20T03:22:20.074Z,33.77
2023-04-20T03:23:20.074Z,37.39
2023-04-20T03:24:20.125Z,34.83
2023-04-20T03:25:20.073Z,36.97
2023-04-20T03:26:20.053Z,39.47
2023-04-20T03:27:20.135Z,38.18
2023-04-20T03:28:20.109Z,37.13
2023-04-20T03:29:20.302Z,35.33
2023-04-20T03:30:21.752Z,36.80
2023-04-20T03:31:20.152Z,34.33
2023-04-20T03:32:20.192Z,33.29
2023-04-20T03:33:20.134Z,33.09
2023-04-20T03:34:20.197Z,36.76
2023-04-20T03:35:20.145Z,36.30
2023-04-20T03:36:20.139Z,36.43
2023-04-20T03:37:20.169Z,35.98
2023-04-20T03:38:20.146Z,36.35
2023-04-20T03:39:20.357Z,36.70
2023-04-20T03:40:20.172Z,37.59
2023-04-20T03:41:20.199Z,36.28
2023-04-20T03:42:20.205Z,34.20
2023-04-20T03:43:20.231Z,34.18
2023-04-20T03:44:20.270Z,36.12
2023-04-20T03:45:20.269Z,36.13
2023-04-20T03:46:22.026Z,35.16
2023-04-20T03:47:20.261Z,37.22
2023-04-20T03:48:20.285Z,38.19
2023-04-20T03:49:20.302Z,34.96
2023-04-20T03:50:20.303Z,33.39
2023-04-20T03:51:20.250Z,34.94
2023-04-20T03:52:20.279Z,35.00
2023-04-20T03:53:20.253Z,36.64
2023-04-20T03:54:20.287Z,36.74
2023-04-20T03:55:20.260Z,36.00
2023-04-20T03:56:20.280Z,35.45
2023-04-20T03:57:20.272Z,34.54
2023-04-20T03:58:20.236Z,34.96
2023-04-20T03:59:20.261Z,35.69
2023-04-20T04:00:20.256Z,32.78
2023-04-20T04:01:20.269Z,33.60
2023-04-20T04:02:20.343Z,33.19
2023-04-20T04:03:20.376Z,35.71
2023-04-20T04:04:20.533Z,29.44
2023-04-20T04:05:20.287Z,32.09
2023-04-20T04:06:20.246Z,32.45
2023-04-20T04:07:20.259Z,34.11
2023-04-20T04:08:20.260Z,31.81
2023-04-20T04:09:20.312Z,35.83
2023-04-20T04:10:20.287Z,34.58
2023-04-20T04:11:20.334Z,33.08
2023-04-20T04:12:20.338Z,34.64
2023-04-20T04:13:20.313Z,33.41
2023-04-20T04:14:20.299Z,36.75
2023-04-20T04:15:20.299Z,36.81
2023-04-20T04:16:20.274Z,37.29
2023-04-20T04:17:20.318Z,37.20
2023-04-20T04:18:20.320Z,38.82
2023-04-20T04:19:20.417Z,37.53
2023-04-20T04:20:20.297Z,36.29
2023-04-20T04:21:20.309Z,36.46
2023-04-20T04:22:20.311Z,37.41
2023-04-20T04:23:20.274Z,34.23
2023-04-20T04:24:20.308Z,36.84
2023-04-20T04:25:20.371Z,37.69
2023-04-20T04:26:20.337Z,39.17
2023-04-20T04:27:20.296Z,35.69
2023-04-20T04:28:20.322Z,36.90
2023-04-20T04:29:20.432Z,36.35
2023-04-20T04:30:20.316Z,36.16
2023-04-20T04:31:20.347Z,37.11
2023-04-20T04:32:20.296Z,37.25
2023-04-20T04:33:20.302Z,38.61
2023-04-20T04:34:20.315Z,37.38
2023-04-20T04:35:20.368Z,36.13
2023-04-20T04:36:20.327Z,39.04
2023-04-20T04:37:20.346Z,39.18
2023-04-20T04:38:20.313Z,41.28
2023-04-20T04:39:20.317Z,41.19
2023-04-20T04:40:20.315Z,40.59
2023-04-20T04:41:20.304Z,44.12
2023-04-20T04:42:20.327Z,40.56
2023-04-20T04:43:20.348Z,40.13
2023-04-20T04:44:20.315Z,43.22
2023-04-20T04:45:20.300Z,41.71
2023-04-20T04:46:20.297Z,41.35
2023-04-20T04:47:20.308Z,42.44
2023-04-20T04:48:20.333Z,40.54
2023-04-20T04:49:20.699Z,40.12
2023-04-20T04:50:20.393Z,38.65
2023-04-20T04:51:20.284Z,38.81
2023-04-20T04:52:20.284Z,44.15
2023-04-20T04:53:20.302Z,45.38
2023-04-20T04:54:20.326Z,46.72
2023-04-20T04:55:20.319Z,49.03
2023-04-20T04:56:20.275Z,50.41
2023-04-20T04:57:20.269Z,51.92
2023-04-20T04:58:20.269Z,55.12
2023-04-20T04:59:20.300Z,56.65
2023-04-20T05:00:20.254Z,60.05
2023-04-20T05:01:20.338Z,61.26
2023-04-20T05:02:20.599Z,69.17
2023-04-20T05:03:20.392Z,67.79
2023-04-20T05:04:20.422Z,72.71
2023-04-20T05:05:20.267Z,72.92
2023-04-20T05:06:20.304Z,76.05
2023-04-20T05:07:20.292Z,80.83
2023-04-20T05:08:20.303Z,85.75
2023-04-20T05:09:20.414Z,88.72
2023-04-20T05:10:20.291Z,90.86
2023-04-20T05:11:20.257Z,92.76
2023-04-20T05:12:20.251Z,97.96
2023-04-20T05:13:20.252Z,103.99
2023-04-20T05:14:20.281Z,106.70
2023-04-20T05:15:20.264Z,111.34
2023-04-20T05:16:20.319Z,114.30
2023-04-20T05:17:20.311Z,116.82
2023-04-20T05:18:20.273Z,120.58
2023-04-20T05:19:20.773Z,123.14
2023-04-20T05:20:20.259Z,126.60
2023-04-20T05:21:20.222Z,126.21
2023-04-20T05:22:20.263Z,130.98
2023-04-20T05:23:20.273Z,129.81
2023-04-20T05:24:20.286Z,136.08
2023-04-20T05:25:20.356Z,139.54
2023-04-20T05:26:20.354Z,142.85
2023-04-20T05:27:20.440Z,144.73
2023-04-20T05:28:20.460Z,148.81
2023-04-20T05:29:20.537Z,153.31
2023-04-20T05:30:22.038Z,152.41
2023-04-20T05:31:20.599Z,156.31
2023-04-20T05:32:21.431Z,152.11
2023-04-20T05:33:20.657Z,156.82
2023-04-20T05:34:20.722Z,153.37
2023-04-20T05:35:20.752Z,152.78
2023-04-20T05:36:20.807Z,156.02
2023-04-20T05:37:20.851Z,166.67
2023-04-20T05:38:20.907Z,168.05
2023-04-20T05:39:21.067Z,183.89
2023-04-20T05:40:21.037Z,186.06
2023-04-20T05:41:21.031Z,189.03
2023-04-20T05:42:21.086Z,191.12
2023-04-20T05:43:21.144Z,198.63
2023-04-20T05:44:21.176Z,197.62
2023-04-20T05:45:21.215Z,197.30
2023-04-20T05:46:21.403Z,204.48
2023-04-20T05:47:21.406Z,201.76
2023-04-20T05:48:21.417Z,204.47
2023-04-20T05:49:21.804Z,209.14
2023-04-20T05:50:21.512Z,215.39
2023-04-20T05:51:21.608Z,221.00
2023-04-20T05:52:21.680Z,229.77
2023-04-20T05:53:21.757Z,229.99
2023-04-20T05:54:21.826Z,230.90
2023-04-20T05:55:22.757Z,239.56
2023-04-20T05:56:21.877Z,236.17
2023-04-20T05:57:21.963Z,240.30
2023-04-20T05:58:21.988Z,245.04
2023-04-20T05:59:22.328Z,243.82
2023-04-20T06:00:24.441Z,243.26
2023-04-20T06:01:22.158Z,243.49
2023-04-20T06:02:22.265Z,245.18
2023-04-20T06:03:22.190Z,238.76
2023-04-20T06:04:22.181Z,243.70
2023-04-20T06:05:22.148Z,249.11
2023-04-20T06:06:22.036Z,246.27
2023-04-20T06:07:22.152Z,246.97
2023-04-20T06:08:22.053Z,247.06
2023-04-20T06:09:22.312Z,250.00
2023-04-20T06:10:22.053Z,249.39
2023-04-20T06:11:22.075Z,249.09
2023-04-20T06:12:22.060Z,249.51
2023-04-20T06:13:22.030Z,248.24
2023-04-20T06:14:22.016Z,250.00
2023-04-20T06:15:21.994Z,246.68
2023-04-20T06:16:22.026Z,244.88
2023-04-20T06:17:22.036Z,246.45
2023-04-20T06:18:21.939Z,247.62
2023-04-20T06:19:21.965Z,247.50
2023-04-20T06:20:21.950Z,246.13
2023-04-20T06:21:21.923Z,250.00
2023-04-20T06:22:21.973Z,247.91
2023-04-20T06:23:21.939Z,249.10
2023-04-20T06:24:21.956Z,248.54
2023-04-20T06:25:21.940Z,248.04
2023-04-20T06:26:22.799Z,249.41
2023-04-20T06:27:21.949Z,249.27
2023-04-20T06:28:21.906Z,248.51
2023-04-20T06:29:21.919Z,250.00
2023-04-20T06:30:21.900Z,250.00
2023-04-20T06:31:22.014Z,250.27
2023-04-20T06:32:21.906Z,245.86
2023-04-20T06:33:21.873Z,247.72
2023-04-20T06:34:21.903Z,245.04
2023-04-20T06:35:21.897Z,245.50
2023-04-20T06:36:21.865Z,246.71
2023-04-20T06:37:21.846Z,250.00
2023-04-20T06:38:21.907Z,247.98
2023-04-20T06:39:21.874Z,247.24
2023-04-20T06:40:21.820Z,247.12
2023-04-20T06:41:21.839Z,247.77
2023-04-20T06:42:21.855Z,249.56
2023-04-20T06:43:21.833Z,249.09
2023-04-20T06:44:21.828Z,249.75
2023-04-20T06:45:21.826Z,245.96
2023-04-20T06:46:21.818Z,248.55
2023-04-20T06:47:21.838Z,249.64
2023-04-20T06:48:30.664Z,248.20
2023-04-20T06:49:22.846Z,248.27
2023-04-20T06:50:21.785Z,247.15
2023-04-20T06:51:21.765Z,246.26
2023-04-20T06:52:21.800Z,244.16
2023-04-20T06:53:21.778Z,242.62
2023-04-20T06:54:21.809Z,243.81
2023-04-20T06:55:21.869Z,243.82
2023-04-20T06:56:21.815Z,245.76
2023-04-20T06:57:21.754Z,239.70
2023-04-20T06:58:21.737Z,243.26
2023-04-20T06:59:21.740Z,247.93
2023-04-20T07:00:21.743Z,246.10
2023-04-20T07:01:21.806Z,246.92
2023-04-20T07:02:21.893Z,242.80
2023-04-20T07:03:21.811Z,239.88
2023-04-20T07:04:21.766Z,243.59
2023-04-20T07:05:21.725Z,247.30
2023-04-20T07:06:21.707Z,247.04
2023-04-20T07:07:21.673Z,250.00
2023-04-20T07:08:21.704Z,249.60
2023-04-20T07:09:21.818Z,246.61
2023-04-20T07:10:21.721Z,249.61
2023-04-20T07:11:21.707Z,246.79
2023-04-20T07:12:21.684Z,248.70
2023-04-20T07:13:21.673Z,248.46
2023-04-20T07:14:21.650Z,246.35
2023-04-20T07:15:21.674Z,247.45
2023-04-20T07:16:21.722Z,247.84
2023-04-20T07:17:21.652Z,247.39
2023-04-20T07:18:21.662Z,247.68
2023-04-20T07:19:21.731Z,246.40
2023-04-20T07:20:21.721Z,246.81
2023-04-20T07:21:21.759Z,247.82
2023-04-20T07:22:21.746Z,249.35
2023-04-20T07:23:21.724Z,248.97
2023-04-20T07:24:21.749Z,247.51
2023-04-20T07:25:21.773Z,247.79
2023-04-20T07:26:21.787Z,245.66
2023-04-20T07:27:21.843Z,244.38
2023-04-20T07:28:21.795Z,246.24
2023-04-20T07:29:21.864Z,243.41
2023-04-20T07:30:21.816Z,241.34
2023-04-20T07:31:21.989Z,244.31
2023-04-20T07:32:22.051Z,242.07
2023-04-20T07:33:21.864Z,238.94
2023-04-20T07:34:22.333Z,237.90
2023-04-20T07:35:21.870Z,240.76
2023-04-20T07:36:21.914Z,243.77
2023-04-20T07:37:21.894Z,244.30
2023-04-20T07:38:21.884Z,247.35
2023-04-20T07:39:22.433Z,245.89
2023-04-20T07:40:21.948Z,245.76
2023-04-20T07:41:21.930Z,237.92
2023-04-20T07:42:21.983Z,235.44
2023-04-20T07:43:21.971Z,241.70
2023-04-20T07:44:22.035Z,240.34
2023-04-20T07:45:22.062Z,239.73
2023-04-20T07:46:22.334Z,242.47
2023-04-20T07:47:22.205Z,240.94
2023-04-20T07:48:22.200Z,237.94
2023-04-20T07:49:22.327Z,245.04
2023-04-20T07:50:22.228Z,246.30
2023-04-20T07:51:22.266Z,246.47
2023-04-20T07:52:22.292Z,250.00
2023-04-20T07:53:22.252Z,248.31
2023-04-20T07:54:22.281Z,249.50
2023-04-20T07:55:22.308Z,246.28
2023-04-20T07:56:22.304Z,248.06
2023-04-20T07:57:30.767Z,247.92
2023-04-20T07:58:22.379Z,248.07
2023-04-20T07:59:22.484Z,248.35
2023-04-20T08:00:22.463Z,248.19
2023-04-20T08:01:22.431Z,249.69
2023-04-20T08:02:22.558Z,248.55
2023-04-20T08:03:22.791Z,249.49
2023-04-20T08:04:22.850Z,247.69
2023-04-20T08:05:22.555Z,249.22
2023-04-20T08:06:22.511Z,247.88
2023-04-20T08:07:22.529Z,246.79
2023-04-20T08:08:22.537Z,248.43
2023-04-20T08:09:22.555Z,247.02
2023-04-20T08:10:22.563Z,249.14
2023-04-20T08:11:22.644Z,247.66
2023-04-20T08:12:22.599Z,250.00
2023-04-20T08:13:22.593Z,246.75
2023-04-20T08:14:22.596Z,245.77
2023-04-20T08:15:22.602Z,245.31
2023-04-20T08:16:22.736Z,243.59
2023-04-20T08:17:22.601Z,240.36
2023-04-20T08:18:22.611Z,237.59
2023-04-20T08:19:23.068Z,241.04
2023-04-20T08:20:22.598Z,243.69
2023-04-20T08:21:24.855Z,244.99
2023-04-20T08:22:22.548Z,245.38
2023-04-20T08:23:22.635Z,244.30
2023-04-20T08:24:22.523Z,243.82
2023-04-20T08:25:23.793Z,242.31
2023-04-20T08:26:22.671Z,242.32
2023-04-20T08:27:22.677Z,240.44
2023-04-20T08:28:32.947Z,238.99
2023-04-20T08:29:23.730Z,242.22
2023-04-20T08:30:22.680Z,241.91
2023-04-20T08:31:22.732Z,240.62
2023-04-20T08:32:22.685Z,238.14
2023-04-20T08:33:22.650Z,234.32
2023-04-20T08:34:22.717Z,238.23
2023-04-20T08:35:22.576Z,237.92
2023-04-20T08:36:22.605Z,241.00
2023-04-20T08:37:22.680Z,243.29
2023-04-20T08:38:32.901Z,245.87
2023-04-20T08:39:23.891Z,246.11
2023-04-20T08:40:22.516Z,246.99
2023-04-20T08:41:22.539Z,247.82
2023-04-20T08:42:22.489Z,248.89
2023-04-20T08:43:22.544Z,247.23
2023-04-20T08:44:22.492Z,245.98
2023-04-20T08:45:22.489Z,249.36
2023-04-20T08:46:22.464Z,250.00
2023-04-20T08:47:22.680Z,250.00
2023-04-20T08:48:22.563Z,248.76
2023-04-20T08:49:22.907Z,248.39
2023-04-20T08:50:22.739Z,246.62
2023-04-20T08:51:22.704Z,249.55
2023-04-20T08:52:22.741Z,246.78
2023-04-20T08:53:22.850Z,240.17
2023-04-20T08:54:24.309Z,235.70
2023-04-20T08:55:22.895Z,236.97
2023-04-20T08:56:22.981Z,239.70
2023-04-20T08:57:22.999Z,243.50
2023-04-20T08:58:23.057Z,246.20
2023-04-20T08:59:23.145Z,246.64
2023-04-20T09:00:23.239Z,247.27
2023-04-20T09:01:34.405Z,250.00
2023-04-20T09:02:24.324Z,250.10
2023-04-20T09:03:23.537Z,249.99
2023-04-20T09:04:23.647Z,247.52
2023-04-20T09:05:23.315Z,248.37
2023-04-20T09:06:23.493Z,251.05
2023-04-20T09:07:23.160Z,249.44
2023-04-20T09:08:23.151Z,249.33
2023-04-20T09:09:23.173Z,250.32
2023-04-20T09:10:23.197Z,248.06
2023-04-20T09:11:23.242Z,250.00
2023-04-20T09:12:23.241Z,250.00
2023-04-20T09:13:23.290Z,249.08
2023-04-20T09:14:23.349Z,248.19
2023-04-20T09:15:23.412Z,249.90
2023-04-20T09:16:23.436Z,249.39
2023-04-20T09:17:23.521Z,247.81
2023-04-20T09:18:23.498Z,248.19
2023-04-20T09:19:23.596Z,249.69
2023-04-20T09:20:23.626Z,249.62
2023-04-20T09:21:23.692Z,249.23
2023-04-20T09:22:23.738Z,249.49
2023-04-20T09:23:23.792Z,249.94
2023-04-20T09:24:23.843Z,249.81
2023-04-20T09:25:23.835Z,249.41
2023-04-20T09:26:23.903Z,249.00
2023-04-20T09:27:23.950Z,249.75
2023-04-20T09:28:23.983Z,249.63
2023-04-20T09:29:24.070Z,248.54
2023-04-20T09:30:24.111Z,248.98
2023-04-20T09:31:24.172Z,246.96
2023-04-20T09:32:24.238Z,246.26
2023-04-20T09:33:24.218Z,245.30
2023-04-20T09:34:24.401Z,246.08
2023-04-20T09:35:24.334Z,247.14
2023-04-20T09:36:24.391Z,246.16
2023-04-20T09:37:24.432Z,246.23
2023-04-20T09:38:24.467Z,250.00
2023-04-20T09:39:24.904Z,245.57
2023-04-20T09:40:24.523Z,243.70
2023-04-20T09:41:24.585Z,245.82
2023-04-20T09:42:24.610Z,247.08
2023-04-20T09:43:24.631Z,244.69
2023-04-20T09:44:24.933Z,244.64
2023-04-20T09:45:24.704Z,239.33
2023-04-20T09:46:24.780Z,237.15
2023-04-20T09:47:24.758Z,239.14
2023-04-20T09:48:24.792Z,235.16
2023-04-20T09:49:24.814Z,236.27
2023-04-20T09:50:31.879Z,235.72
2023-04-20T09:51:25.961Z,232.61
2023-04-20T09:52:24.833Z,232.68
2023-04-20T09:53:24.918Z,236.72
2023-04-20T09:54:24.817Z,235.98
2023-04-20T09:55:24.797Z,235.25
2023-04-20T09:56:24.804Z,238.13
2023-04-20T09:57:24.809Z,238.04
2023-04-20T09:58:24.785Z,237.72
2023-04-20T09:59:24.770Z,239.55
2023-04-20T10:00:24.735Z,235.12
2023-04-20T10:01:24.738Z,236.70
2023-04-20T10:02:24.949Z,243.33
2023-04-20T10:03:24.894Z,245.25
2023-04-20T10:04:25.193Z,242.77
2023-04-20T10:05:24.739Z,231.35
2023-04-20T10:06:24.785Z,236.11
2023-04-20T10:07:24.863Z,236.53
2023-04-20T10:08:24.918Z,235.93
2023-04-20T10:09:24.974Z,234.41
2023-04-20T10:10:25.001Z,235.14
2023-04-20T10:11:25.276Z,236.33
2023-04-20T10:12:25.142Z,235.85
2023-04-20T10:13:25.193Z,238.17
2023-04-20T10:14:25.211Z,237.19
2023-04-20T10:15:25.245Z,238.83
2023-04-20T10:16:25.340Z,238.57
2023-04-20T10:17:25.476Z,237.69
2023-04-20T10:18:25.466Z,238.51
2023-04-20T10:19:25.426Z,239.12
2023-04-20T10:20:25.455Z,239.56
2023-04-20T10:21:25.508Z,241.17
2023-04-20T10:22:25.539Z,239.28
2023-04-20T10:23:25.570Z,242.06
2023-04-20T10:24:25.925Z,240.94
2023-04-20T10:25:25.621Z,239.35
2023-04-20T10:26:25.650Z,237.48
2023-04-20T10:27:25.721Z,240.90
2023-04-20T10:28:25.737Z,239.24
2023-04-20T10:29:25.800Z,239.25
2023-04-20T10:30:25.808Z,238.81
2023-04-20T10:31:25.892Z,241.12
2023-04-20T10:32:25.988Z,239.92
2023-04-20T10:33:25.950Z,238.19
2023-04-20T10:34:25.999Z,239.66
2023-04-20T10:35:26.032Z,240.17
2023-04-20T10:36:26.087Z,236.02
2023-04-20T10:37:26.118Z,238.39
2023-04-20T10:38:26.148Z,234.03
2023-04-20T10:39:26.441Z,236.92
2023-04-20T10:40:26.189Z,239.12
2023-04-20T10:41:26.234Z,239.45
2023-04-20T10:42:26.260Z,236.35
2023-04-20T10:43:26.308Z,234.88
2023-04-20T10:44:26.338Z,230.89
2023-04-20T10:45:26.363Z,227.67
2023-04-20T10:46:26.405Z,226.36
2023-04-20T10:47:26.440Z,226.98
2023-04-20T10:48:26.425Z,232.48
2023-04-20T10:49:26.449Z,231.76
2023-04-20T10:50:26.487Z,230.92
2023-04-20T10:51:26.510Z,229.44
2023-04-20T10:52:26.514Z,228.29
2023-04-20T10:53:26.528Z,227.93
2023-04-20T10:54:26.535Z,226.27
2023-04-20T10:55:26.688Z,224.13
2023-04-20T10:56:26.584Z,224.47
2023-04-20T10:57:26.609Z,224.05
2023-04-20T10:58:26.644Z,223.66
2023-04-20T10:59:26.676Z,222.66
2023-04-20T11:00:26.696Z,223.22
2023-04-20T11:01:26.712Z,224.07
2023-04-20T11:02:26.890Z,222.44
2023-04-20T11:03:26.858Z,222.97
2023-04-20T11:04:26.865Z,221.10
2023-04-20T11:05:26.875Z,220.03
2023-04-20T11:06:26.874Z,220.30
2023-04-20T11:07:26.866Z,220.91
2023-04-20T11:08:26.906Z,220.02
2023-04-20T11:09:26.923Z,219.51
2023-04-20T11:10:26.990Z,218.65
2023-04-20T11:11:27.007Z,215.95
2023-04-20T11:12:27.016Z,212.39
2023-04-20T11:13:27.061Z,215.55
2023-04-20T11:14:27.126Z,216.53
2023-04-20T11:15:27.096Z,214.10
2023-04-20T11:16:40.319Z,211.16
2023-04-20T11:17:28.329Z,211.30
2023-04-20T11:18:27.093Z,211.90
2023-04-20T11:19:27.084Z,213.14
2023-04-20T11:20:27.084Z,213.35
2023-04-20T11:21:27.041Z,214.48
2023-04-20T11:22:27.074Z,214.41
2023-04-20T11:23:27.042Z,216.16
2023-04-20T11:24:27.010Z,216.35
2023-04-20T11:25:27.043Z,218.09
2023-04-20T11:26:26.996Z,214.61
2023-04-20T11:27:27.004Z,214.55
2023-04-20T11:28:26.972Z,216.91
2023-04-20T11:29:27.029Z,216.42
2023-04-20T11:30:27.437Z,211.54
2023-04-20T11:31:27.096Z,207.50
2023-04-20T11:32:27.123Z,210.53
2023-04-20T11:33:27.157Z,211.10
2023-04-20T11:34:27.100Z,214.86
2023-04-20T11:35:27.436Z,211.82
2023-04-20T11:36:27.137Z,210.59
2023-04-20T11:37:27.182Z,209.97
2023-04-20T11:38:27.248Z,211.61
2023-04-20T11:39:27.242Z,212.08
2023-04-20T11:40:28.516Z,210.54
2023-04-20T11:41:27.288Z,207.15
2023-04-20T11:42:27.340Z,208.68
2023-04-20T11:43:28.364Z,204.79
2023-04-20T11:44:27.458Z,206.50
2023-04-20T11:45:27.477Z,203.58
2023-04-20T11:46:27.538Z,205.04
2023-04-20T11:47:27.490Z,201.79
2023-04-20T11:48:27.513Z,200.26
2023-04-20T11:49:27.552Z,201.01
2023-04-20T11:50:27.612Z,199.17
2023-04-20T11:51:27.669Z,200.12
2023-04-20T11:52:27.716Z,200.81
2023-04-20T11:53:27.765Z,200.19
2023-04-20T11:54:27.840Z,197.12
2023-04-20T11:55:27.879Z,199.11
2023-04-20T11:56:28.663Z,198.35
2023-04-20T11:57:27.957Z,202.90
2023-04-20T11:58:27.978Z,203.66
2023-04-20T11:59:28.111Z,199.83
2023-04-20T12:00:28.096Z,198.13
2023-04-20T12:01:28.154Z,195.88
2023-04-20T12:02:28.337Z,195.00
2023-04-20T12:03:28.364Z,193.91
2023-04-20T12:04:28.556Z,192.68
2023-04-20T12:05:28.393Z,192.07
2023-04-20T12:06:28.418Z,193.34
2023-04-20T12:07:28.427Z,188.63
2023-04-20T12:08:28.514Z,191.83
2023-04-20T12:09:28.550Z,191.10
2023-04-20T12:10:28.589Z,194.15
2023-04-20T12:11:28.631Z,193.49
2023-04-20T12:12:28.757Z,193.78
2023-04-20T12:13:28.738Z,193.20
2023-04-20T12:14:28.790Z,191.32
2023-04-20T12:15:28.864Z,193.47
2023-04-20T12:16:29.007Z,192.22
2023-04-20T12:17:28.917Z,193.70
2023-04-20T12:18:28.919Z,193.97
2023-04-20T12:19:28.958Z,191.36
2023-04-20T12:20:28.985Z,191.09
2023-04-20T12:21:29.058Z,193.91
2023-04-20T12:22:29.080Z,195.77
2023-04-20T12:23:29.142Z,193.25
2023-04-20T12:24:29.184Z,197.25
2023-04-20T12:25:29.183Z,195.43
2023-04-20T12:26:37.956Z,196.31
2023-04-20T12:27:30.248Z,196.33
2023-04-20T12:28:29.227Z,196.16
2023-04-20T12:29:29.200Z,195.41
2023-04-20T12:30:29.200Z,196.87
2023-04-20T12:31:29.411Z,195.88
2023-04-20T12:32:29.206Z,196.12
2023-04-20T12:33:29.188Z,194.91
2023-04-20T12:34:30.698Z,194.96
2023-04-20T12:35:29.165Z,193.54
2023-04-20T12:36:29.144Z,193.35
2023-04-20T12:37:29.120Z,193.36
2023-04-20T12:38:29.108Z,192.96